Time;durP1;ratioP1;P1;durP2;ratioP2;P2;SDS_P1;SDS_P2;PMS_P1;PMS_P2;Temp;Humidity;BMP_temperature;BMP_pressure;BME280_temperature;BME280_humidity;BME280_pressure;Samples;Min_cycle;Max_cycle;Signal;HPM_P1;HPM_P2
2023/07/09 00:00:16;;;;;;;;;;;24.40;54.40;;;;;;4989211;28;19917;-82
2023/07/09 00:02:52;;;;;;;;;;;24.50;53.70;;;;;;4991784;28;20330;-83
2023/07/09 00:05:55;;;;;;;;;;;24.50;55.20;;;;;;5057305;28;19909;-85
2023/07/09 00:08:24;;;;;;;;;;;24.40;55.80;;;;;;4999985;28;19983;-82
2023/07/09 00:10:59;;;;;;;;;;;24.30;55.80;;;;;;5047162;28;19920;-83
2023/07/09 00:13:26;;;;;;;;;;;24.20;56.10;;;;;;4968655;28;19979;-82
2023/07/09 00:16:09;;;;;;;;;;;24.10;57.60;;;;;;4987697;28;20005;-82
2023/07/09 00:18:37;;;;;;;;;;;24.00;57.60;;;;;;4965890;28;19945;-81
2023/07/09 00:21:03;;;;;;;;;;;23.90;57.90;;;;;;4968917;28;20364;-81
2023/07/09 00:23:29;;;;;;;;;;;23.90;58.00;;;;;;4971862;28;19914;-82
2023/07/09 00:25:55;;;;;;;;;;;23.80;58.90;;;;;;4985836;28;19922;-83
2023/07/09 00:28:20;;;;;;;;;;;23.80;58.90;;;;;;4987186;28;19918;-83
2023/07/09 00:30:47;;;;;;;;;;;23.70;59.20;;;;;;4980525;28;20046;-81
2023/07/09 00:33:16;;;;;;;;;;;23.60;59.30;;;;;;4986821;28;19927;-81
2023/07/09 00:35:50;;;;;;;;;;;23.60;60.00;;;;;;4985856;28;19938;-82
2023/07/09 00:38:22;;;;;;;;;;;23.60;60.90;;;;;;4988886;28;20325;-81
2023/07/09 00:40:48;;;;;;;;;;;23.40;62.00;;;;;;4990102;28;19920;-81
2023/07/09 00:43:16;;;;;;;;;;;23.30;62.60;;;;;;4991735;28;20282;-82
2023/07/09 00:45:41;;;;;;;;;;;23.30;62.80;;;;;;4993494;28;20372;-82
2023/07/09 00:48:12;;;;;;;;;;;23.20;63.30;;;;;;4983386;28;19914;-81
2023/07/09 00:50:52;;;;;;;;;;;23.10;63.90;;;;;;4991927;28;19922;-82
2023/07/09 00:53:23;;;;;;;;;;;23.00;63.80;;;;;;4990172;28;19956;-82
2023/07/09 00:56:01;;;;;;;;;;;23.00;64.50;;;;;;4990723;28;19921;-83
2023/07/09 00:58:27;;;;;;;;;;;22.90;64.80;;;;;;4992789;28;19910;-83
2023/07/09 01:01:01;;;;;;;;;;;22.80;64.80;;;;;;4994126;28;20399;-81
2023/07/09 01:03:29;;;;;;;;;;;22.80;64.50;;;;;;4992043;28;19963;-82
2023/07/09 01:05:57;;;;;;;;;;;22.80;64.40;;;;;;4992241;28;19921;-83
2023/07/09 01:08:23;;;;;;;;;;;22.70;64.90;;;;;;4992566;28;19910;-83
2023/07/09 01:10:49;;;;;;;;;;;22.70;65.80;;;;;;4993096;28;19928;-82
2023/07/09 01:13:16;;;;;;;;;;;22.60;65.80;;;;;;4994380;28;19918;-81
2023/07/09 01:15:42;;;;;;;;;;;22.60;66.10;;;;;;4990774;28;19950;-82
2023/07/09 01:18:08;;;;;;;;;;;22.60;66.60;;;;;;4992314;28;19909;-82
2023/07/09 01:20:34;;;;;;;;;;;22.50;66.80;;;;;;4992956;28;20312;-82
2023/07/09 01:23:00;;;;;;;;;;;22.50;67.00;;;;;;4993791;28;20016;-82
2023/07/09 01:25:27;;;;;;;;;;;22.40;67.40;;;;;;4992782;28;19963;-83
2023/07/09 01:27:54;;;;;;;;;;;22.40;67.80;;;;;;5005776;22;19930;-83
2023/07/09 01:30:24;;;;;;;;;;;22.30;67.70;;;;;;5061860;28;19933;-82
2023/07/09 01:32:51;;;;;;;;;;;22.30;67.70;;;;;;4992540;28;20328;-82
2023/07/09 01:35:18;;;;;;;;;;;22.30;67.60;;;;;;4992720;28;20005;-82
2023/07/09 01:37:44;;;;;;;;;;;22.30;67.50;;;;;;4986625;28;20095;-83
2023/07/09 01:40:11;;;;;;;;;;;22.20;67.50;;;;;;4991395;28;19945;-83
2023/07/09 01:42:40;;;;;;;;;;;22.20;68.10;;;;;;4991644;28;19925;-82
2023/07/09 01:45:06;;;;;;;;;;;22.10;68.40;;;;;;4972473;28;20296;-83
2023/07/09 01:47:32;;;;;;;;;;;22.10;68.60;;;;;;4968287;28;19959;-82
2023/07/09 01:49:57;;;;;;;;;;;22.10;69.10;;;;;;4975557;28;19940;-83
2023/07/09 01:52:29;;;;;;;;;;;22.10;68.80;;;;;;4974043;28;19990;-82
2023/07/09 01:54:54;;;;;;;;;;;22.00;69.10;;;;;;4973407;28;20293;-83
2023/07/09 01:57:24;;;;;;;;;;;21.90;69.30;;;;;;4973110;28;19929;-83
2023/07/09 01:59:54;;;;;;;;;;;21.90;69.70;;;;;;4973942;28;19914;-83
2023/07/09 02:02:20;;;;;;;;;;;21.80;69.80;;;;;;4974118;28;20008;-83
2023/07/09 02:04:47;;;;;;;;;;;21.80;70.40;;;;;;4990771;28;19910;-82
2023/07/09 02:07:13;;;;;;;;;;;21.80;70.00;;;;;;4972924;28;20288;-83
2023/07/09 02:09:38;;;;;;;;;;;21.80;70.20;;;;;;4980154;28;19914;-83
2023/07/09 02:12:04;;;;;;;;;;;21.80;70.00;;;;;;4989127;28;19924;-83
2023/07/09 02:14:29;;;;;;;;;;;21.70;70.10;;;;;;4970081;28;20389;-83
2023/07/09 02:16:55;;;;;;;;;;;21.70;69.60;;;;;;4989214;28;19917;-83
2023/07/09 02:19:20;;;;;;;;;;;21.70;70.00;;;;;;4987100;28;19918;-82
2023/07/09 02:21:45;;;;;;;;;;;21.70;70.20;;;;;;4971577;28;19989;-82
2023/07/09 02:24:11;;;;;;;;;;;21.70;70.60;;;;;;4988354;28;20303;-83
2023/07/09 02:26:36;;;;;;;;;;;21.60;70.40;;;;;;4991461;28;19921;-83
2023/07/09 02:29:02;;;;;;;;;;;21.60;70.30;;;;;;5010496;28;20392;-83
2023/07/09 02:31:29;;;;;;;;;;;21.60;70.40;;;;;;4995788;28;19940;-84
2023/07/09 02:33:58;;;;;;;;;;;21.60;70.70;;;;;;4997167;28;19910;-83
2023/07/09 02:36:24;;;;;;;;;;;21.60;70.80;;;;;;5008771;28;19935;-83
2023/07/09 02:38:49;;;;;;;;;;;21.60;70.90;;;;;;4994744;28;20393;-83
2023/07/09 02:41:15;;;;;;;;;;;21.50;70.70;;;;;;5010406;28;19910;-83
2023/07/09 02:43:41;;;;;;;;;;;21.50;70.30;;;;;;5013353;28;19917;-83
2023/07/09 02:46:06;;;;;;;;;;;21.50;70.70;;;;;;4995471;28;19910;-83
2023/07/09 02:48:31;;;;;;;;;;;21.50;71.00;;;;;;4992763;28;19963;-83
2023/07/09 02:50:57;;;;;;;;;;;21.50;71.20;;;;;;4994426;28;19914;-83
2023/07/09 02:53:22;;;;;;;;;;;21.50;71.30;;;;;;4993721;28;19971;-83
2023/07/09 02:55:48;;;;;;;;;;;21.40;71.20;;;;;;4997145;28;19921;-82
2023/07/09 02:58:13;;;;;;;;;;;21.50;71.20;;;;;;4991723;28;20016;-83
2023/07/09 03:00:39;;;;;;;;;;;21.40;71.40;;;;;;4995495;28;19909;-83
2023/07/09 03:03:04;;;;;;;;;;;21.50;71.50;;;;;;4995593;28;19957;-83
2023/07/09 03:05:29;;;;;;;;;;;21.40;71.50;;;;;;5011949;28;19913;-83
2023/07/09 03:07:55;;;;;;;;;;;21.40;71.40;;;;;;4993307;28;20008;-83
2023/07/09 03:10:20;;;;;;;;;;;21.30;71.40;;;;;;4994778;28;20280;-83
2023/07/09 03:12:46;;;;;;;;;;;21.30;71.40;;;;;;4994759;28;19921;-83
2023/07/09 03:15:11;;;;;;;;;;;21.40;71.20;;;;;;5008772;28;20568;-83
2023/07/09 03:17:37;;;;;;;;;;;21.40;71.30;;;;;;4992570;28;20022;-83
2023/07/09 03:20:03;;;;;;;;;;;21.30;71.60;;;;;;4991703;28;20323;-82
2023/07/09 03:22:28;;;;;;;;;;;21.30;71.50;;;;;;4992532;28;19917;-83
2023/07/09 03:24:53;;;;;;;;;;;21.20;71.70;;;;;;5009151;28;20291;-82
2023/07/09 03:27:19;;;;;;;;;;;21.20;71.90;;;;;;5009254;28;20252;-83
2023/07/09 03:29:44;;;;;;;;;;;21.20;72.10;;;;;;5008162;28;19936;-82
2023/07/09 03:32:10;;;;;;;;;;;21.20;72.00;;;;;;5010145;28;19925;-83
2023/07/09 03:34:35;;;;;;;;;;;21.20;72.10;;;;;;5012013;28;19915;-83
2023/07/09 03:37:01;;;;;;;;;;;21.20;72.10;;;;;;4978970;28;19917;-83
2023/07/09 03:39:26;;;;;;;;;;;21.30;72.10;;;;;;4998153;28;20331;-83
2023/07/09 03:41:52;;;;;;;;;;;21.20;72.50;;;;;;4975184;28;19917;-83
2023/07/09 03:44:17;;;;;;;;;;;21.20;72.70;;;;;;4969804;28;19916;-83
2023/07/09 03:46:43;;;;;;;;;;;21.30;72.60;;;;;;4973395;28;20339;-83
2023/07/09 03:49:08;;;;;;;;;;;21.30;72.80;;;;;;4972051;28;19917;-83
2023/07/09 03:51:34;;;;;;;;;;;21.30;72.80;;;;;;4971722;28;19918;-83
2023/07/09 03:53:59;;;;;;;;;;;21.20;73.20;;;;;;4978011;28;19914;-83
2023/07/09 03:56:24;;;;;;;;;;;21.10;73.70;;;;;;4975556;28;20448;-83
2023/07/09 03:58:50;;;;;;;;;;;21.10;73.80;;;;;;5000178;28;20303;-83
2023/07/09 04:01:16;;;;;;;;;;;21.10;74.00;;;;;;5012364;28;19936;-83
2023/07/09 04:03:41;;;;;;;;;;;21.10;74.30;;;;;;5005895;28;19909;-83
2023/07/09 04:06:07;;;;;;;;;;;21.10;74.30;;;;;;5013184;28;19984;-83
2023/07/09 04:08:32;;;;;;;;;;;21.00;74.60;;;;;;4994908;28;20314;-83
2023/07/09 04:10:59;;;;;;;;;;;21.10;74.70;;;;;;5014831;28;19913;-83
2023/07/09 04:13:24;;;;;;;;;;;21.00;74.70;;;;;;4985239;28;19913;-83
2023/07/09 04:15:50;;;;;;;;;;;21.00;75.00;;;;;;4992371;28;20297;-83
2023/07/09 04:18:16;;;;;;;;;;;21.00;75.00;;;;;;4975945;28;19975;-83
2023/07/09 04:20:41;;;;;;;;;;;21.10;75.10;;;;;;4975749;28;20008;-83
2023/07/09 04:23:07;;;;;;;;;;;21.10;74.80;;;;;;4976873;28;20364;-83
2023/07/09 04:25:33;;;;;;;;;;;21.10;74.50;;;;;;4974572;28;19995;-83
2023/07/09 04:27:59;;;;;;;;;;;21.10;75.10;;;;;;5009186;28;19921;-83
2023/07/09 04:30:25;;;;;;;;;;;21.00;75.40;;;;;;4976668;28;19917;-83
2023/07/09 04:32:50;;;;;;;;;;;21.00;75.20;;;;;;4976934;28;19921;-83
2023/07/09 04:35:16;;;;;;;;;;;21.00;75.60;;;;;;4976656;28;19925;-83
2023/07/09 04:37:41;;;;;;;;;;;21.10;75.70;;;;;;4988079;28;19958;-83
2023/07/09 04:40:10;;;;;;;;;;;21.10;75.90;;;;;;4985943;28;20008;-83
2023/07/09 04:42:36;;;;;;;;;;;21.10;75.80;;;;;;4996396;28;20329;-83
2023/07/09 04:45:01;;;;;;;;;;;21.10;75.80;;;;;;4976636;28;19913;-83
2023/07/09 04:47:27;;;;;;;;;;;21.10;75.10;;;;;;4989658;28;20402;-83
2023/07/09 04:49:52;;;;;;;;;;;21.10;74.90;;;;;;4997272;28;19913;-83
2023/07/09 04:52:18;;;;;;;;;;;21.10;74.90;;;;;;4986867;28;19925;-83
2023/07/09 04:54:44;;;;;;;;;;;21.20;75.10;;;;;;4974715;28;20357;-83
2023/07/09 04:57:10;;;;;;;;;;;21.20;75.40;;;;;;4993093;28;20193;-83
2023/07/09 04:59:35;;;;;;;;;;;21.20;75.00;;;;;;4987697;28;20417;-83
2023/07/09 05:02:01;;;;;;;;;;;21.30;74.30;;;;;;4991235;28;19976;-83
2023/07/09 05:04:26;;;;;;;;;;;21.50;73.90;;;;;;4972656;28;20059;-83
2023/07/09 05:06:52;;;;;;;;;;;21.50;73.40;;;;;;4973664;28;19911;-83
2023/07/09 05:09:17;;;;;;;;;;;21.50;73.60;;;;;;4979008;28;19916;-83
2023/07/09 05:11:43;;;;;;;;;;;21.60;74.00;;;;;;4976887;28;19979;-82
2023/07/09 05:14:08;;;;;;;;;;;21.60;74.00;;;;;;4977212;28;20009;-83
2023/07/09 05:16:34;;;;;;;;;;;21.70;73.90;;;;;;4995408;28;20008;-83
2023/07/09 05:18:59;;;;;;;;;;;21.70;73.60;;;;;;4996390;28;19909;-83
2023/07/09 05:21:24;;;;;;;;;;;21.70;73.50;;;;;;4994200;28;19916;-83
2023/07/09 05:23:50;;;;;;;;;;;21.80;73.50;;;;;;4994491;28;19914;-83
2023/07/09 05:26:15;;;;;;;;;;;22.00;73.00;;;;;;4991094;28;19937;-83
2023/07/09 05:28:41;;;;;;;;;;;22.10;72.70;;;;;;5036439;28;19917;-83
2023/07/09 05:31:06;;;;;;;;;;;22.10;72.60;;;;;;5030725;28;19913;-83
2023/07/09 05:33:32;;;;;;;;;;;22.20;72.60;;;;;;5013847;28;19955;-83
2023/07/09 05:35:58;;;;;;;;;;;22.30;72.40;;;;;;5012300;28;19909;-83
2023/07/09 05:38:23;;;;;;;;;;;22.30;72.40;;;;;;5012113;28;19918;-82
2023/07/09 05:40:58;;;;;;;;;;;22.40;72.40;;;;;;5017886;28;19949;-82
2023/07/09 05:43:23;;;;;;;;;;;22.50;72.60;;;;;;5013028;28;19918;-83
2023/07/09 05:45:49;;;;;;;;;;;22.60;72.60;;;;;;5013184;28;19909;-83
2023/07/09 05:48:14;;;;;;;;;;;22.70;72.60;;;;;;5012930;28;19924;-83
2023/07/09 05:50:39;;;;;;;;;;;22.90;72.10;;;;;;5051049;28;20296;-83
2023/07/09 05:53:06;;;;;;;;;;;23.00;72.00;;;;;;5011279;28;19963;-83
2023/07/09 05:55:32;;;;;;;;;;;23.10;72.50;;;;;;5013349;28;19910;-83
2023/07/09 05:57:57;;;;;;;;;;;23.20;72.50;;;;;;4994405;28;20006;-83
2023/07/09 06:00:22;;;;;;;;;;;23.20;73.10;;;;;;5008499;28;19921;-83
2023/07/09 06:02:49;;;;;;;;;;;23.30;72.90;;;;;;5005569;28;19913;-83
2023/07/09 06:05:14;;;;;;;;;;;23.30;73.40;;;;;;5009180;28;21281;-83
2023/07/09 06:07:40;;;;;;;;;;;23.40;73.60;;;;;;5057804;28;19966;-83
2023/07/09 06:10:06;;;;;;;;;;;23.50;73.00;;;;;;5080462;28;19910;-83
2023/07/09 06:12:31;;;;;;;;;;;23.60;70.70;;;;;;5073591;28;19922;-83
2023/07/09 06:14:57;;;;;;;;;;;23.70;70.80;;;;;;5079869;28;19908;-83
2023/07/09 06:17:22;;;;;;;;;;;23.90;68.80;;;;;;5016948;28;19913;-83
2023/07/09 06:19:48;;;;;;;;;;;24.00;67.90;;;;;;5087351;28;19931;-83
2023/07/09 06:22:13;;;;;;;;;;;24.00;67.70;;;;;;5011843;28;19914;-83
2023/07/09 06:24:39;;;;;;;;;;;24.20;68.10;;;;;;4988514;28;19920;-83
2023/07/09 06:27:04;;;;;;;;;;;24.30;67.40;;;;;;5047585;28;20004;-83
2023/07/09 06:29:30;;;;;;;;;;;24.40;66.80;;;;;;5060069;28;19961;-83
2023/07/09 06:31:55;;;;;;;;;;;24.50;66.20;;;;;;5064035;28;19914;-83
2023/07/09 06:34:21;;;;;;;;;;;24.50;66.80;;;;;;5082355;28;19924;-83
2023/07/09 06:36:46;;;;;;;;;;;24.70;65.20;;;;;;5015098;28;20593;-83
2023/07/09 06:39:12;;;;;;;;;;;24.80;65.70;;;;;;5010871;28;19924;-83
2023/07/09 06:41:38;;;;;;;;;;;24.80;64.90;;;;;;4996943;28;20261;-84
2023/07/09 06:44:05;;;;;;;;;;;24.90;63.70;;;;;;5042336;28;20372;-83
2023/07/09 06:46:31;;;;;;;;;;;25.00;63.20;;;;;;5045120;28;19917;-83
2023/07/09 06:48:56;;;;;;;;;;;25.10;63.50;;;;;;4992127;28;19962;-83
2023/07/09 06:51:22;;;;;;;;;;;25.30;62.70;;;;;;5094890;28;19912;-83
2023/07/09 06:53:50;;;;;;;;;;;25.50;62.30;;;;;;5078155;28;19967;-83
2023/07/09 06:56:15;;;;;;;;;;;25.50;61.50;;;;;;4993106;28;20024;-83
2023/07/09 06:58:41;;;;;;;;;;;25.70;61.70;;;;;;5018676;28;19913;-83
2023/07/09 07:01:06;;;;;;;;;;;25.70;62.40;;;;;;5054791;28;19914;-83
2023/07/09 07:03:32;;;;;;;;;;;25.70;62.60;;;;;;5037668;28;19910;-83
2023/07/09 07:05:58;;;;;;;;;;;25.90;62.30;;;;;;5009946;28;19944;-83
2023/07/09 07:08:24;;;;;;;;;;;25.90;63.80;;;;;;5020700;28;20446;-83
2023/07/09 07:10:53;;;;;;;;;;;26.00;61.90;;;;;;4991184;28;20652;-83
2023/07/09 07:13:19;;;;;;;;;;;26.00;62.10;;;;;;5090607;28;19941;-83
2023/07/09 07:15:48;;;;;;;;;;;26.00;62.30;;;;;;4990399;28;19910;-83
2023/07/09 07:18:13;;;;;;;;;;;26.10;62.00;;;;;;4989176;28;19921;-83
2023/07/09 07:20:39;;;;;;;;;;;26.10;62.60;;;;;;5007429;28;19921;-83
2023/07/09 07:23:04;;;;;;;;;;;26.10;59.60;;;;;;5042948;28;19912;-83
2023/07/09 07:25:31;;;;;;;;;;;26.20;60.50;;;;;;5010244;28;19916;-83
2023/07/09 07:27:57;;;;;;;;;;;26.30;61.60;;;;;;5011903;28;19917;-82
2023/07/09 07:30:22;;;;;;;;;;;26.30;62.40;;;;;;5010445;28;19917;-83
2023/07/09 07:32:48;;;;;;;;;;;26.40;62.90;;;;;;5041179;28;19921;-83
2023/07/09 07:35:14;;;;;;;;;;;26.50;63.40;;;;;;5044067;28;19992;-83
2023/07/09 07:37:40;;;;;;;;;;;26.60;61.90;;;;;;4993291;28;19953;-83
2023/07/09 07:40:06;;;;;;;;;;;26.80;60.60;;;;;;5023433;28;19910;-82
2023/07/09 07:42:31;;;;;;;;;;;26.80;59.90;;;;;;5006844;28;19914;-82
2023/07/09 07:44:57;;;;;;;;;;;26.80;60.90;;;;;;5028666;28;20445;-82
2023/07/09 07:47:22;;;;;;;;;;;26.70;60.80;;;;;;5009298;28;19958;-83
2023/07/09 07:49:48;;;;;;;;;;;26.90;60.20;;;;;;5007430;28;20368;-83
2023/07/09 07:52:13;;;;;;;;;;;27.10;59.70;;;;;;5009342;28;19967;-82
2023/07/09 07:54:39;;;;;;;;;;;27.00;59.60;;;;;;5076648;28;19909;-83
2023/07/09 07:57:04;;;;;;;;;;;27.00;59.70;;;;;;5031329;28;20362;-82
2023/07/09 07:59:32;;;;;;;;;;;27.10;59.10;;;;;;5026518;28;19917;-82
2023/07/09 08:01:58;;;;;;;;;;;27.30;60.10;;;;;;4991906;28;19918;-83
2023/07/09 08:04:24;;;;;;;;;;;27.30;59.70;;;;;;4991129;28;19938;-82
2023/07/09 08:06:49;;;;;;;;;;;27.30;60.20;;;;;;5039409;28;19947;-83
2023/07/09 08:09:16;;;;;;;;;;;27.30;59.00;;;;;;5037177;28;19954;-82
2023/07/09 08:11:41;;;;;;;;;;;27.40;60.00;;;;;;4991572;28;19920;-82
2023/07/09 08:14:07;;;;;;;;;;;27.50;57.90;;;;;;5002495;28;19914;-83
2023/07/09 08:16:32;;;;;;;;;;;27.60;59.10;;;;;;5033129;28;20368;-82
2023/07/09 08:18:58;;;;;;;;;;;27.60;57.90;;;;;;5008453;28;19914;-83
2023/07/09 08:23:56;;;;;;;;;;;27.80;56.20;;;;;;4962421;28;19926;-87
2023/07/09 08:26:24;;;;;;;;;;;27.80;55.40;;;;;;5025238;28;19915;-88
2023/07/09 08:28:51;;;;;;;;;;;27.90;59.00;;;;;;5035837;28;19915;-88
2023/07/09 08:31:25;;;;;;;;;;;28.00;57.10;;;;;;5035120;28;19921;-87
2023/07/09 08:33:53;;;;;;;;;;;28.00;57.40;;;;;;4936351;28;19918;-87
2023/07/09 08:36:18;;;;;;;;;;;28.00;58.00;;;;;;5010407;28;19910;-88
2023/07/09 08:38:44;;;;;;;;;;;28.10;56.90;;;;;;4982433;28;19972;-88
2023/07/09 08:41:32;;;;;;;;;;;28.10;57.00;;;;;;5014018;28;19922;-88
2023/07/09 08:44:01;;;;;;;;;;;28.30;57.20;;;;;;4983122;28;19910;-88
2023/07/09 08:46:39;;;;;;;;;;;28.30;55.70;;;;;;5009020;28;20342;-88
2023/07/09 08:49:12;;;;;;;;;;;28.30;56.70;;;;;;5026724;28;19914;-87
2023/07/09 08:51:41;;;;;;;;;;;28.30;55.40;;;;;;5030700;28;19996;-88
2023/07/09 08:54:36;;;;;;;;;;;28.40;55.40;;;;;;5017048;28;19915;-88
2023/07/09 08:57:14;;;;;;;;;;;28.40;55.10;;;;;;5000501;28;19953;-88
2023/07/09 08:59:41;;;;;;;;;;;28.70;53.70;;;;;;5011931;28;19923;-88
2023/07/09 09:02:14;;;;;;;;;;;28.60;54.50;;;;;;5019749;28;19918;-88
2023/07/09 09:04:40;;;;;;;;;;;28.70;54.80;;;;;;5017690;28;19919;-87
2023/07/09 09:07:12;;;;;;;;;;;28.70;53.70;;;;;;5017428;28;19915;-87
2023/07/09 09:09:45;;;;;;;;;;;28.80;51.30;;;;;;5020234;28;19957;-87
2023/07/09 09:12:23;;;;;;;;;;;28.90;51.40;;;;;;5014408;28;19969;-87
2023/07/09 09:15:01;;;;;;;;;;;29.00;53.80;;;;;;4962867;28;19924;-91
2023/07/09 09:17:33;;;;;;;;;;;29.00;53.20;;;;;;5014164;28;19914;-90
2023/07/09 09:20:00;;;;;;;;;;;29.00;51.40;;;;;;5002324;28;19971;-90
2023/07/09 09:22:30;;;;;;;;;;;29.00;52.20;;;;;;5029458;28;19927;-88
2023/07/09 09:25:20;;;;;;;;;;;29.10;51.90;;;;;;5033243;28;19923;-89
2023/07/09 09:27:48;;;;;;;;;;;29.10;48.80;;;;;;5033472;28;19922;-87
2023/07/09 09:30:15;;;;;;;;;;;29.20;48.60;;;;;;5026373;28;19912;-87
2023/07/09 09:32:57;;;;;;;;;;;29.40;48.40;;;;;;5019640;28;19918;-88
2023/07/09 09:35:28;;;;;;;;;;;29.40;49.80;;;;;;5013749;28;19938;-89
2023/07/09 09:37:56;;;;;;;;;;;29.60;48.10;;;;;;5009758;28;19958;-90
2023/07/09 09:40:28;;;;;;;;;;;29.50;49.90;;;;;;5012235;28;19929;-89
2023/07/09 09:43:00;;;;;;;;;;;29.60;52.60;;;;;;5018546;28;20020;-90
2023/07/09 09:45:33;;;;;;;;;;;29.60;52.50;;;;;;5018731;28;20682;-90
2023/07/09 09:48:00;;;;;;;;;;;29.50;51.00;;;;;;5036261;28;19913;-90
2023/07/09 09:50:46;;;;;;;;;;;29.70;50.20;;;;;;5027463;28;19921;-89
2023/07/09 09:53:29;;;;;;;;;;;29.70;49.10;;;;;;5019276;28;20001;-90
2023/07/09 09:59:42;;;;;;;;;;;29.60;49.70;;;;;;4988411;28;19968;-91
2023/07/09 10:02:49;;;;;;;;;;;29.70;50.10;;;;;;4984144;22;20015;-81
2023/07/09 10:05:15;;;;;;;;;;;29.90;49.90;;;;;;4992526;28;19918;-83
2023/07/09 10:08:01;;;;;;;;;;;30.10;51.30;;;;;;5005812;28;19945;-81
2023/07/09 10:10:30;;;;;;;;;;;30.00;51.60;;;;;;5004853;28;19918;-82
2023/07/09 10:13:25;;;;;;;;;;;30.10;51.50;;;;;;5012632;28;20376;-81
2023/07/09 10:16:11;;;;;;;;;;;30.10;50.50;;;;;;5004226;28;19921;-82
2023/07/09 10:18:58;;;;;;;;;;;30.00;48.40;;;;;;5009924;28;19913;-80
2023/07/09 10:21:34;;;;;;;;;;;30.10;49.00;;;;;;5006203;28;19913;-81
2023/07/09 10:24:26;;;;;;;;;;;30.30;49.30;;;;;;4993836;28;19921;-82
2023/07/09 10:27:20;;;;;;;;;;;30.40;49.80;;;;;;4993364;28;19913;-83
2023/07/09 10:32:57;;;;;;;;;;;30.80;46.50;;;;;;5008631;28;19914;-81
2023/07/09 10:35:34;;;;;;;;;;;30.80;47.60;;;;;;5016354;28;19913;-82
2023/07/09 10:38:26;;;;;;;;;;;30.80;47.60;;;;;;5014446;28;19922;-83
2023/07/09 10:41:09;;;;;;;;;;;30.80;48.20;;;;;;5019542;28;19993;-83
2023/07/09 10:43:56;;;;;;;;;;;31.00;47.00;;;;;;5069377;28;19915;-83
2023/07/09 10:50:04;;;;;;;;;;;30.70;48.40;;;;;;5006638;28;19914;-82
2023/07/09 10:55:43;;;;;;;;;;;30.80;45.30;;;;;;5014122;28;20317;-83
2023/07/09 10:58:30;;;;;;;;;;;31.00;50.50;;;;;;5065379;28;19913;-83
2023/07/09 11:01:11;;;;;;;;;;;31.00;46.20;;;;;;5074080;28;20314;-82
2023/07/09 11:04:00;;;;;;;;;;;30.90;47.70;;;;;;5038586;27;19963;-83
2023/07/09 11:06:57;;;;;;;;;;;31.00;46.60;;;;;;5017783;28;20033;-82
2023/07/09 11:13:00;;;;;;;;;;;31.10;46.80;;;;;;5016727;28;19920;-82
2023/07/09 11:15:35;;;;;;;;;;;31.00;45.70;;;;;;5078909;28;19915;-82
2023/07/09 11:18:23;;;;;;;;;;;31.20;47.40;;;;;;5112725;28;19923;-83
2023/07/09 11:21:01;;;;;;;;;;;31.50;45.70;;;;;;5093136;28;20568;-83
2023/07/09 11:23:36;;;;;;;;;;;31.40;46.80;;;;;;5037835;28;19923;-81
2023/07/09 11:26:34;;;;;;;;;;;31.50;48.30;;;;;;5029776;28;19913;-82
2023/07/09 11:29:16;;;;;;;;;;;31.50;49.10;;;;;;5029580;28;19912;-83
2023/07/09 11:31:45;;;;;;;;;;;31.60;47.20;;;;;;5017500;28;19922;-82
2023/07/09 11:34:19;;;;;;;;;;;31.70;47.30;;;;;;5004621;28;19921;-80
2023/07/09 11:36:55;;;;;;;;;;;31.60;47.90;;;;;;5085076;28;20084;-80
2023/07/09 11:39:32;;;;;;;;;;;31.60;45.00;;;;;;5002399;28;19956;-82
2023/07/09 11:42:43;;;;;;;;;;;31.80;43.80;;;;;;5021701;28;19963;-84
2023/07/09 11:45:13;;;;;;;;;;;31.90;45.30;;;;;;4998698;28;20291;-83
2023/07/09 11:51:15;;;;;;;;;;;31.70;43.80;;;;;;5005130;28;20380;-83
2023/07/09 11:53:40;;;;;;;;;;;31.70;44.10;;;;;;5000286;28;19995;-83
2023/07/09 11:56:10;;;;;;;;;;;31.70;43.30;;;;;;5022970;28;19914;-84
2023/07/09 11:58:35;;;;;;;;;;;31.60;44.60;;;;;;5046889;28;20594;-84
2023/07/09 12:01:14;;;;;;;;;;;32.00;46.80;;;;;;5005178;28;19921;-84
2023/07/09 12:03:55;;;;;;;;;;;;;;;;;;;;;
2023/07/09 12:06:23;;;;;;;;;;;31.90;45.70;;;;;;4997718;28;20390;-81
2023/07/09 12:08:58;;;;;;;;;;;31.80;45.90;;;;;;5011353;28;19964;-81
2023/07/09 12:14:24;;;;;;;;;;;31.90;44.20;;;;;;5002093;28;20025;-82
2023/07/09 12:16:53;;;;;;;;;;;32.00;42.40;;;;;;4998584;28;19961;-82
2023/07/09 12:19:26;;;;;;;;;;;32.00;43.40;;;;;;5012281;28;19914;-82
2023/07/09 12:21:58;;;;;;;;;;;32.00;43.40;;;;;;5006878;28;19920;-82
2023/07/09 12:24:47;;;;;;;;;;;32.00;42.80;;;;;;5006927;28;19928;-82
2023/07/09 12:27:23;;;;;;;;;;;32.10;44.80;;;;;;5028887;23;19945;-83
2023/07/09 12:29:50;;;;;;;;;;;32.10;44.10;;;;;;4976415;28;20366;-82
2023/07/09 12:32:22;;;;;;;;;;;32.30;41.50;;;;;;5004018;28;20000;-83
2023/07/09 12:35:14;;;;;;;;;;;32.60;40.70;;;;;;4972485;28;19922;-81
2023/07/09 12:37:42;;;;;;;;;;;32.90;38.40;;;;;;4952427;28;19922;-81
2023/07/09 12:40:12;;;;;;;;;;;33.20;37.50;;;;;;4967478;28;19963;-82
2023/07/09 12:42:44;;;;;;;;;;;33.30;38.70;;;;;;4966583;28;19987;-83
2023/07/09 12:45:14;;;;;;;;;;;33.30;39.00;;;;;;4939663;28;20407;-83
2023/07/09 12:47:40;;;;;;;;;;;33.30;39.50;;;;;;4984080;28;19915;-83
2023/07/09 12:50:24;;;;;;;;;;;33.30;39.40;;;;;;4958699;28;19968;-82
2023/07/09 12:52:50;;;;;;;;;;;33.30;39.20;;;;;;4956343;28;19950;-82
2023/07/09 12:55:22;;;;;;;;;;;33.50;38.50;;;;;;4940086;28;19917;-82
2023/07/09 12:58:02;;;;;;;;;;;33.50;37.60;;;;;;4949586;28;19915;-82
2023/07/09 13:00:31;;;;;;;;;;;33.80;37.20;;;;;;4960760;28;19925;-81
2023/07/09 13:02:58;;;;;;;;;;;33.80;39.40;;;;;;4958541;28;19942;-81
2023/07/09 13:05:26;;;;;;;;;;;33.70;40.70;;;;;;4944091;28;19919;-82
2023/07/09 13:07:53;;;;;;;;;;;33.70;40.60;;;;;;4938709;28;19925;-81
2023/07/09 13:10:21;;;;;;;;;;;33.70;38.20;;;;;;4955431;28;19921;-79
2023/07/09 13:12:49;;;;;;;;;;;33.60;40.30;;;;;;4933975;28;19965;-82
2023/07/09 13:15:19;;;;;;;;;;;33.90;39.50;;;;;;4942659;28;21317;-82
2023/07/09 13:17:44;;;;;;;;;;;33.70;38.00;;;;;;4947477;28;19921;-81
2023/07/09 13:20:10;;;;;;;;;;;33.70;38.70;;;;;;4951265;28;20043;-81
2023/07/09 13:22:35;;;;;;;;;;;33.50;38.40;;;;;;4969545;28;20344;-82
2023/07/09 13:25:01;;;;;;;;;;;33.50;38.70;;;;;;4958681;28;19915;-82
2023/07/09 13:27:26;;;;;;;;;;;33.40;38.10;;;;;;4971435;28;20349;-82
2023/07/09 13:29:52;;;;;;;;;;;33.60;38.70;;;;;;4963160;28;20481;-82
2023/07/09 13:32:17;;;;;;;;;;;33.40;39.10;;;;;;4940209;29;19968;-82
2023/07/09 13:34:44;;;;;;;;;;;33.50;38.90;;;;;;4946305;28;19953;-82
2023/07/09 13:37:13;;;;;;;;;;;33.40;37.70;;;;;;4957681;28;20418;-82
2023/07/09 13:39:40;;;;;;;;;;;33.30;39.30;;;;;;4956303;28;19910;-82
2023/07/09 13:42:09;;;;;;;;;;;33.30;39.40;;;;;;4956330;28;19911;-82
2023/07/09 13:44:35;;;;;;;;;;;33.30;39.80;;;;;;4957539;28;19910;-82
2023/07/09 13:47:01;;;;;;;;;;;33.30;40.00;;;;;;4956917;28;20397;-82
2023/07/09 13:49:27;;;;;;;;;;;33.20;38.80;;;;;;4955780;28;19974;-81
2023/07/09 13:51:54;;;;;;;;;;;33.10;39.50;;;;;;4938836;28;19919;-82
2023/07/09 13:54:22;;;;;;;;;;;33.20;40.90;;;;;;4938450;28;19940;-82
2023/07/09 13:56:49;;;;;;;;;;;33.10;41.00;;;;;;4939073;28;19918;-80
2023/07/09 13:59:16;;;;;;;;;;;33.10;39.20;;;;;;4954962;28;19910;-82
2023/07/09 14:01:42;;;;;;;;;;;33.10;40.00;;;;;;4955048;28;19922;-82
2023/07/09 14:04:09;;;;;;;;;;;32.90;41.20;;;;;;4938700;29;19911;-82
2023/07/09 14:06:34;;;;;;;;;;;32.80;41.60;;;;;;4955289;29;20273;-82
2023/07/09 14:09:00;;;;;;;;;;;32.60;42.60;;;;;;4952227;28;19920;-81
2023/07/09 14:11:31;;;;;;;;;;;32.40;43.90;;;;;;5325942;22;19926;-81
2023/07/09 14:18:59;;;;;;;;;;;31.80;45.60;;;;;;5073704;28;19925;-82
2023/07/09 14:21:26;;;;;;;;;;;31.60;46.50;;;;;;5070274;28;20387;-81
2023/07/09 14:23:52;;;;;;;;;;;31.40;47.40;;;;;;5057811;28;20399;-81
2023/07/09 14:26:20;;;;;;;;;;;31.20;48.50;;;;;;5054865;28;19912;-82
2023/07/09 14:28:45;;;;;;;;;;;31.00;49.30;;;;;;5053859;28;19913;-82
2023/07/09 14:31:22;;;;;;;;;;;30.80;51.10;;;;;;5056136;28;19978;-81
2023/07/09 14:33:50;;;;;;;;;;;30.50;52.20;;;;;;5072970;28;19916;-82
2023/07/09 14:36:16;;;;;;;;;;;30.40;52.90;;;;;;5059917;28;19923;-82
2023/07/09 14:38:41;;;;;;;;;;;30.20;54.60;;;;;;5059862;28;19912;-82
2023/07/09 14:41:24;;;;;;;;;;;30.00;55.90;;;;;;5065864;28;19908;-81
2023/07/09 14:43:50;;;;;;;;;;;29.90;56.60;;;;;;5056990;28;20004;-82
2023/07/09 14:46:15;;;;;;;;;;;29.80;56.70;;;;;;5059705;28;19955;-81
2023/07/09 14:48:40;;;;;;;;;;;29.70;54.20;;;;;;5062158;28;20026;-81
2023/07/09 14:51:13;;;;;;;;;;;29.60;54.60;;;;;;5074037;28;19913;-80
2023/07/09 14:53:39;;;;;;;;;;;29.50;55.80;;;;;;5054731;28;19924;-82
2023/07/09 14:56:04;;;;;;;;;;;29.40;57.80;;;;;;5067406;28;19913;-81
2023/07/09 14:58:30;;;;;;;;;;;29.30;59.60;;;;;;5074117;28;19962;-80
2023/07/09 15:00:55;;;;;;;;;;;29.10;61.10;;;;;;5053641;28;19916;-82